createdAt,value
2018-12-31T00:01:14.540Z,6.90
2018-12-31T00:03:55.564Z,6.90
2018-12-31T00:06:36.380Z,6.80
2018-12-31T00:09:16.862Z,6.80
2018-12-31T00:11:57.440Z,6.90
2018-12-31T00:14:38.559Z,6.90
2018-12-31T00:17:19.043Z,6.90
2018-12-31T00:19:59.484Z,6.80
2018-12-31T00:22:39.799Z,6.80
2018-12-31T00:25:20.103Z,6.90
2018-12-31T00:28:00.571Z,6.80
2018-12-31T00:30:41.148Z,6.80
2018-12-31T00:33:22.284Z,6.80
2018-12-31T00:36:02.601Z,6.80
2018-12-31T00:38:43.116Z,6.80
2018-12-31T00:41:23.535Z,6.80
2018-12-31T00:44:04.506Z,6.80
2018-12-31T00:46:45.211Z,6.80
2018-12-31T00:49:25.731Z,6.80
2018-12-31T00:52:06.035Z,6.90
2018-12-31T00:54:46.475Z,6.90
2018-12-31T00:57:27.200Z,6.90
2018-12-31T01:00:07.536Z,6.90
2018-12-31T01:02:47.847Z,6.90
2018-12-31T01:05:28.440Z,6.90
2018-12-31T01:08:08.850Z,7.00
2018-12-31T01:10:49.578Z,7.00
2018-12-31T01:13:30.115Z,7.00
2018-12-31T01:16:10.755Z,6.90
2018-12-31T01:18:54.433Z,7.00
2018-12-31T01:21:35.140Z,7.00
2018-12-31T01:24:15.615Z,7.00
2018-12-31T01:26:56.191Z,7.00
2018-12-31T01:29:40.084Z,6.90
2018-12-31T01:32:20.963Z,6.90
2018-12-31T01:35:02.083Z,6.90
2018-12-31T01:37:42.903Z,6.90
2018-12-31T01:40:23.759Z,6.90
2018-12-31T01:45:46.327Z,6.90
2018-12-31T01:51:11.531Z,6.90
2018-12-31T01:53:51.447Z,6.90
2018-12-31T01:56:32.119Z,6.90
2018-12-31T01:59:12.351Z,6.90
2018-12-31T02:01:53.219Z,7.00
2018-12-31T02:04:33.828Z,7.00
2018-12-31T02:07:14.509Z,7.00
2018-12-31T02:09:55.052Z,7.00
2018-12-31T02:12:35.531Z,7.00
2018-12-31T02:15:17.392Z,7.00
2018-12-31T02:17:58.103Z,7.10
2018-12-31T02:20:38.450Z,7.20
2018-12-31T02:23:18.708Z,7.20
2018-12-31T02:25:59.559Z,7.10
2018-12-31T02:28:40.844Z,7.20
2018-12-31T02:31:21.479Z,7.20
2018-12-31T02:34:02.190Z,7.10
2018-12-31T02:36:43.250Z,7.10
2018-12-31T02:39:23.408Z,7.10
2018-12-31T02:42:03.689Z,7.10
2018-12-31T02:44:44.231Z,7.10
2018-12-31T02:47:25.259Z,7.10
2018-12-31T02:50:06.257Z,7.10
2018-12-31T02:52:46.716Z,7.10
2018-12-31T02:55:27.239Z,7.20
2018-12-31T02:58:07.675Z,7.20
2018-12-31T03:00:48.023Z,7.10
2018-12-31T03:03:28.675Z,7.10
2018-12-31T03:06:09.291Z,7.10
2018-12-31T03:08:49.551Z,7.10
2018-12-31T03:11:30.264Z,7.10
2018-12-31T03:13:58.631Z,7.20
2018-12-31T03:16:46.356Z,7.20
2018-12-31T03:19:34.063Z,7.30
2018-12-31T03:22:21.783Z,7.30
2018-12-31T03:25:09.504Z,7.30
2018-12-31T03:27:57.512Z,7.30
2018-12-31T03:30:45.560Z,7.20
2018-12-31T03:33:33.520Z,7.10
2018-12-31T03:36:21.252Z,7.10
2018-12-31T03:39:08.961Z,7.10
2018-12-31T03:41:56.693Z,7.00
2018-12-31T03:44:44.875Z,7.00
2018-12-31T03:47:25.512Z,7.00
2018-12-31T03:50:06.009Z,7.10
2018-12-31T03:52:49.628Z,7.00
2018-12-31T03:55:30.012Z,7.10
2018-12-31T03:58:10.248Z,7.10
2018-12-31T04:00:50.600Z,7.10
2018-12-31T04:03:31.359Z,7.00
2018-12-31T04:06:12.304Z,7.10
2018-12-31T04:08:53.136Z,7.10
2018-12-31T04:11:33.930Z,7.10
2018-12-31T04:14:14.560Z,7.10
2018-12-31T04:16:55.365Z,7.10
2018-12-31T04:19:36.427Z,7.00
2018-12-31T04:22:17.322Z,7.00
2018-12-31T04:24:58.233Z,7.00
2018-12-31T04:27:38.931Z,7.00
2018-12-31T04:30:19.845Z,7.00
2018-12-31T04:33:00.496Z,7.00
2018-12-31T04:35:41.238Z,7.00
2018-12-31T04:38:21.832Z,6.90
2018-12-31T04:40:50.199Z,6.90
2018-12-31T04:43:37.920Z,7.00
2018-12-31T04:46:25.868Z,6.90
2018-12-31T04:49:06.952Z,7.00
2018-12-31T04:51:47.341Z,6.90
2018-12-31T04:54:27.891Z,6.90
2018-12-31T04:57:08.424Z,6.90
2018-12-31T04:59:49.280Z,6.90
2018-12-31T05:02:29.927Z,6.90
2018-12-31T05:05:10.489Z,7.00
2018-12-31T05:07:51.105Z,7.00
2018-12-31T05:10:31.793Z,7.00
2018-12-31T05:13:12.233Z,7.10
2018-12-31T05:15:53.212Z,7.10
2018-12-31T05:18:33.647Z,7.10
2018-12-31T05:21:14.138Z,7.20
2018-12-31T05:23:54.933Z,7.20
2018-12-31T05:26:35.707Z,7.20
2018-12-31T05:29:16.427Z,7.10
2018-12-31T05:31:44.798Z,7.10
2018-12-31T05:34:32.840Z,7.10
2018-12-31T05:37:20.555Z,7.20
2018-12-31T05:40:08.271Z,7.20
2018-12-31T05:42:56.003Z,7.20
2018-12-31T05:45:44.040Z,7.20
2018-12-31T05:48:24.580Z,7.20
2018-12-31T05:51:05.031Z,7.10
2018-12-31T05:53:45.827Z,7.10
2018-12-31T05:56:26.815Z,7.10
2018-12-31T05:59:07.343Z,7.10
2018-12-31T06:01:48.211Z,7.10
2018-12-31T06:04:32.254Z,7.20
2018-12-31T06:07:12.908Z,7.30
2018-12-31T06:09:53.843Z,7.40
2018-12-31T06:12:34.479Z,7.50
2018-12-31T06:15:15.160Z,7.50
2018-12-31T06:17:55.931Z,7.50
2018-12-31T06:20:36.428Z,7.40
2018-12-31T06:23:17.019Z,7.40
2018-12-31T06:25:57.527Z,7.40
2018-12-31T06:28:38.483Z,7.30
2018-12-31T06:31:18.675Z,7.30
2018-12-31T06:33:59.107Z,7.20
2018-12-31T06:36:40.236Z,7.30
2018-12-31T06:39:20.789Z,7.30
2018-12-31T06:42:01.202Z,7.40
2018-12-31T06:44:42.267Z,7.40
2018-12-31T06:47:22.755Z,7.40
2018-12-31T06:50:03.059Z,7.30
2018-12-31T06:52:43.711Z,7.30
2018-12-31T06:55:24.339Z,7.30
2018-12-31T06:58:04.979Z,7.30
2018-12-31T07:00:45.919Z,7.40
2018-12-31T07:03:26.307Z,7.40
2018-12-31T07:06:06.872Z,7.40
2018-12-31T07:08:47.911Z,7.50
2018-12-31T07:11:28.680Z,7.60
2018-12-31T07:14:09.132Z,7.60
2018-12-31T07:16:49.464Z,7.60
2018-12-31T07:19:30.227Z,7.70
2018-12-31T07:22:11.151Z,7.70
2018-12-31T07:24:51.553Z,7.70
2018-12-31T07:27:32.531Z,7.60
2018-12-31T07:30:13.187Z,7.70
2018-12-31T07:32:54.204Z,7.70
2018-12-31T07:35:34.759Z,7.60
2018-12-31T07:38:15.663Z,7.60
2018-12-31T07:40:56.191Z,7.50
2018-12-31T07:43:37.195Z,7.50
2018-12-31T07:46:18.532Z,7.50
2018-12-31T07:51:42.912Z,7.30
2018-12-31T07:54:23.187Z,7.20
2018-12-31T07:57:03.514Z,7.20
2018-12-31T07:59:44.333Z,7.20
2018-12-31T08:02:24.839Z,7.20
2018-12-31T08:05:05.215Z,7.30
2018-12-31T08:07:45.659Z,7.30
2018-12-31T08:10:26.499Z,7.30
2018-12-31T08:13:06.680Z,7.30
2018-12-31T08:15:47.300Z,7.20
2018-12-31T08:18:28.024Z,7.20
2018-12-31T08:21:08.234Z,7.20
2018-12-31T08:23:49.100Z,7.20
2018-12-31T08:26:29.569Z,7.20
2018-12-31T08:29:10.088Z,7.10
2018-12-31T08:31:50.580Z,7.10
2018-12-31T08:34:31.485Z,7.20
2018-12-31T08:37:12.305Z,7.20
2018-12-31T08:39:53.355Z,7.30
2018-12-31T08:42:34.111Z,7.30
2018-12-31T08:45:15.087Z,7.30
2018-12-31T08:47:55.996Z,7.40
2018-12-31T08:50:36.441Z,7.50
2018-12-31T08:53:17.051Z,7.50
2018-12-31T08:55:57.489Z,7.60
2018-12-31T08:58:38.235Z,7.60
2018-12-31T09:01:19.332Z,7.60
2018-12-31T09:04:00.328Z,7.60
2018-12-31T09:06:41.066Z,7.50
2018-12-31T09:09:21.680Z,7.60
2018-12-31T09:12:02.076Z,7.60
2018-12-31T09:14:42.760Z,7.60
2018-12-31T09:17:23.471Z,7.70
2018-12-31T09:20:04.155Z,7.60
2018-12-31T09:22:44.438Z,7.60
2018-12-31T09:25:25.151Z,7.70
2018-12-31T09:28:05.867Z,7.80
2018-12-31T09:30:46.355Z,7.90
2018-12-31T09:33:26.752Z,7.90
2018-12-31T09:36:07.460Z,8.00
2018-12-31T09:38:47.791Z,8.00
2018-12-31T09:41:28.283Z,8.00
2018-12-31T09:44:09.272Z,8.10
2018-12-31T09:46:49.843Z,8.20
2018-12-31T09:49:30.200Z,8.30
2018-12-31T09:52:10.800Z,8.30
2018-12-31T09:54:51.587Z,8.40
2018-12-31T09:57:32.092Z,8.50
2018-12-31T10:00:12.421Z,8.60
2018-12-31T10:02:53.138Z,8.60
2018-12-31T10:05:34.331Z,8.70
2018-12-31T10:08:14.879Z,8.60
2018-12-31T10:10:55.804Z,8.70
2018-12-31T10:13:36.767Z,8.70
2018-12-31T10:16:17.752Z,8.70
2018-12-31T10:18:58.628Z,8.70
2018-12-31T10:21:41.153Z,8.70
2018-12-31T10:24:21.356Z,8.80
2018-12-31T10:27:03.519Z,8.90
2018-12-31T10:29:44.407Z,9.00
2018-12-31T10:32:25.460Z,8.90
2018-12-31T10:35:06.291Z,8.90
2018-12-31T10:37:46.759Z,8.90
2018-12-31T10:40:28.026Z,8.90
2018-12-31T10:43:08.858Z,8.90
2018-12-31T10:45:49.764Z,8.90
2018-12-31T10:48:30.394Z,8.90
2018-12-31T10:51:10.841Z,8.90
2018-12-31T10:53:51.449Z,8.80
2018-12-31T10:56:32.403Z,8.90
2018-12-31T10:59:12.971Z,9.00
2018-12-31T11:01:53.516Z,9.00
2018-12-31T11:04:34.110Z,8.90
2018-12-31T11:07:14.591Z,8.90
2018-12-31T11:09:55.155Z,8.80
2018-12-31T11:12:35.688Z,8.80
2018-12-31T11:15:16.147Z,8.90
2018-12-31T11:17:56.812Z,8.90
2018-12-31T11:20:37.785Z,9.00
2018-12-31T11:23:18.159Z,9.00
2018-12-31T11:25:56.875Z,9.20
2018-12-31T11:28:44.599Z,9.30
2018-12-31T11:31:32.315Z,9.50
2018-12-31T11:34:20.030Z,9.60
2018-12-31T11:37:07.993Z,9.60
2018-12-31T11:39:55.706Z,9.60
2018-12-31T11:42:43.679Z,9.70
2018-12-31T11:45:31.739Z,9.80
2018-12-31T11:48:19.796Z,9.90
2018-12-31T11:51:00.859Z,10.00
2018-12-31T11:53:41.391Z,10.10
2018-12-31T11:56:21.851Z,10.20
2018-12-31T11:59:02.391Z,10.40
2018-12-31T12:01:42.895Z,10.80
2018-12-31T12:04:23.355Z,11.20
2018-12-31T12:07:04.176Z,11.90
2018-12-31T12:09:45.331Z,12.30
2018-12-31T12:12:25.848Z,12.90
2018-12-31T12:15:06.279Z,13.00
2018-12-31T12:17:47.123Z,12.90
2018-12-31T12:20:27.695Z,12.80
2018-12-31T12:23:08.195Z,12.90
2018-12-31T12:25:49.144Z,12.70
2018-12-31T12:28:30.119Z,12.80
2018-12-31T12:31:11.047Z,12.70
2018-12-31T12:33:52.252Z,12.50
2018-12-31T12:36:33.180Z,12.30
2018-12-31T12:39:14.251Z,12.00
2018-12-31T12:41:55.771Z,11.90
2018-12-31T12:44:36.176Z,11.80
2018-12-31T12:47:17.007Z,11.70
2018-12-31T12:49:58.116Z,11.60
2018-12-31T12:52:38.728Z,11.50
2018-12-31T12:55:19.279Z,11.40
2018-12-31T12:58:00.138Z,11.50
2018-12-31T13:00:40.596Z,11.50
2018-12-31T13:03:21.367Z,11.50
2018-12-31T13:06:02.080Z,11.40
2018-12-31T13:08:42.624Z,11.40
2018-12-31T13:11:23.369Z,11.30
2018-12-31T13:14:03.988Z,11.10
2018-12-31T13:16:44.823Z,11.10
2018-12-31T13:19:25.227Z,10.90
2018-12-31T13:22:06.034Z,10.80
2018-12-31T13:24:46.479Z,10.70
2018-12-31T13:27:27.184Z,10.60
2018-12-31T13:30:10.471Z,10.60
2018-12-31T13:32:49.815Z,10.50
2018-12-31T13:35:30.399Z,10.40
2018-12-31T13:38:10.750Z,10.40
2018-12-31T13:40:51.216Z,10.40
2018-12-31T13:43:31.703Z,10.40
2018-12-31T13:46:12.909Z,10.40
2018-12-31T13:48:53.429Z,10.40
2018-12-31T13:51:33.871Z,10.40
2018-12-31T13:54:14.492Z,10.30
2018-12-31T13:56:54.994Z,10.30
2018-12-31T13:59:35.745Z,10.40
2018-12-31T14:02:16.431Z,10.30
2018-12-31T14:04:56.928Z,10.30
2018-12-31T14:07:38.507Z,10.40
2018-12-31T14:10:18.913Z,10.30
2018-12-31T14:12:59.803Z,10.30
2018-12-31T14:15:40.359Z,10.30
2018-12-31T14:18:21.102Z,10.30
2018-12-31T14:21:01.759Z,10.30
2018-12-31T14:23:42.259Z,10.20
2018-12-31T14:26:22.717Z,10.20
2018-12-31T14:29:03.424Z,10.10
2018-12-31T14:31:44.002Z,10.00
2018-12-31T14:34:24.476Z,10.00
2018-12-31T14:37:04.895Z,9.90
2018-12-31T14:39:45.625Z,9.90
2018-12-31T14:42:26.046Z,9.90
2018-12-31T14:45:06.929Z,9.90
2018-12-31T14:47:47.767Z,10.00
2018-12-31T14:50:28.199Z,10.00
2018-12-31T14:53:08.723Z,10.00
2018-12-31T14:55:49.515Z,10.00
2018-12-31T14:58:30.415Z,10.00
2018-12-31T15:01:11.460Z,9.90
2018-12-31T15:03:52.052Z,9.80
2018-12-31T15:06:32.836Z,9.70
2018-12-31T15:09:13.184Z,9.70
2018-12-31T15:11:54.525Z,9.80
2018-12-31T15:14:35.892Z,9.90
2018-12-31T15:17:16.744Z,9.80
2018-12-31T15:19:57.134Z,9.70
2018-12-31T15:22:37.912Z,9.70
2018-12-31T15:25:18.596Z,9.70
2018-12-31T15:27:59.555Z,9.80
2018-12-31T15:30:40.467Z,9.70
2018-12-31T15:33:21.715Z,9.60
2018-12-31T15:36:02.175Z,9.50
2018-12-31T15:38:42.599Z,9.40
2018-12-31T15:41:23.688Z,9.40
2018-12-31T15:44:04.281Z,9.30
2018-12-31T15:46:44.679Z,9.30
2018-12-31T15:49:25.415Z,9.20
2018-12-31T15:52:05.912Z,9.20
2018-12-31T15:54:46.451Z,9.20
2018-12-31T15:57:27.359Z,9.20
2018-12-31T16:00:07.887Z,9.20
2018-12-31T16:02:48.347Z,9.20
2018-12-31T16:05:28.789Z,9.20
2018-12-31T16:08:09.567Z,9.20
2018-12-31T16:10:50.123Z,9.20
2018-12-31T16:13:30.947Z,9.20
2018-12-31T16:16:11.359Z,9.10
2018-12-31T16:18:52.019Z,9.10
2018-12-31T16:21:32.487Z,9.10
2018-12-31T16:24:13.935Z,9.10
2018-12-31T16:26:54.675Z,9.10
2018-12-31T16:29:35.487Z,9.10
2018-12-31T16:32:15.807Z,9.10
2018-12-31T16:34:56.419Z,9.00
2018-12-31T16:37:37.343Z,9.10
2018-12-31T16:40:18.135Z,9.10
2018-12-31T16:42:59.019Z,9.00
2018-12-31T16:45:40.080Z,9.00
2018-12-31T16:48:20.915Z,9.00
2018-12-31T16:51:01.099Z,8.90
2018-12-31T16:53:41.700Z,8.90
2018-12-31T16:56:22.813Z,8.90
2018-12-31T16:59:03.587Z,8.90
2018-12-31T17:01:44.502Z,8.80
2018-12-31T17:04:25.043Z,8.80
2018-12-31T17:07:05.303Z,8.70
2018-12-31T17:09:45.811Z,8.60
2018-12-31T17:12:26.343Z,8.70
2018-12-31T17:15:07.004Z,8.70
2018-12-31T17:17:47.891Z,8.70
2018-12-31T17:20:28.480Z,8.70
2018-12-31T17:23:08.876Z,8.70
2018-12-31T17:25:49.363Z,8.70
2018-12-31T17:28:30.147Z,8.70
2018-12-31T17:31:10.519Z,8.70
2018-12-31T17:33:51.452Z,8.80
2018-12-31T17:36:31.740Z,8.80
2018-12-31T17:39:12.295Z,8.90
2018-12-31T17:41:52.839Z,8.90
2018-12-31T17:44:33.743Z,8.90
2018-12-31T17:47:14.761Z,8.90
2018-12-31T17:49:55.496Z,8.80
2018-12-31T17:52:36.161Z,8.90
2018-12-31T17:55:16.995Z,8.90
2018-12-31T17:57:58.189Z,8.90
2018-12-31T18:00:38.495Z,8.80
2018-12-31T18:06:03.627Z,8.90
2018-12-31T18:08:44.315Z,9.00
2018-12-31T18:11:24.883Z,9.00
2018-12-31T18:14:05.565Z,9.00
2018-12-31T18:16:46.241Z,9.00
2018-12-31T18:19:26.608Z,9.00
2018-12-31T18:22:07.191Z,8.90
2018-12-31T18:24:47.931Z,8.90
2018-12-31T18:27:29.408Z,8.90
2018-12-31T18:30:10.035Z,8.80
2018-12-31T18:32:50.604Z,8.80
2018-12-31T18:35:31.191Z,8.80
2018-12-31T18:38:12.236Z,8.80
2018-12-31T18:40:52.759Z,8.80
2018-12-31T18:43:33.363Z,8.90
2018-12-31T18:46:14.175Z,8.80
2018-12-31T18:48:54.563Z,8.80
2018-12-31T18:51:35.080Z,8.80
2018-12-31T18:54:15.437Z,8.90
2018-12-31T18:56:56.355Z,8.90
2018-12-31T18:59:37.616Z,8.90
2018-12-31T19:02:18.560Z,9.00
2018-12-31T19:04:58.754Z,9.00
2018-12-31T19:07:39.239Z,9.00
2018-12-31T19:10:19.889Z,9.00
2018-12-31T19:13:00.675Z,9.00
2018-12-31T19:15:41.095Z,9.00
2018-12-31T19:18:22.016Z,9.00
2018-12-31T19:21:03.200Z,9.00
2018-12-31T19:23:43.768Z,8.90
2018-12-31T19:26:24.439Z,9.00
2018-12-31T19:29:05.077Z,9.00
2018-12-31T19:31:45.416Z,9.00
2018-12-31T19:34:26.023Z,9.00
2018-12-31T19:37:06.404Z,9.00
2018-12-31T19:39:46.591Z,8.90
2018-12-31T19:42:27.196Z,8.90
2018-12-31T19:45:08.043Z,8.80
2018-12-31T19:47:48.804Z,8.80
2018-12-31T19:50:29.179Z,8.70
2018-12-31T19:53:10.081Z,8.60
2018-12-31T19:55:50.772Z,8.50
2018-12-31T19:58:31.292Z,8.50
2018-12-31T20:01:12.147Z,8.40
2018-12-31T20:03:53.020Z,8.40
2018-12-31T20:06:33.370Z,8.30
2018-12-31T20:09:14.211Z,8.30
2018-12-31T20:11:54.643Z,8.30
2018-12-31T20:14:34.767Z,8.30
2018-12-31T20:17:15.531Z,8.30
2018-12-31T20:19:56.447Z,8.20
2018-12-31T20:22:36.960Z,8.20
2018-12-31T20:25:17.504Z,8.20
2018-12-31T20:27:58.231Z,8.20
2018-12-31T20:30:38.665Z,8.20
2018-12-31T20:33:19.167Z,8.20
2018-12-31T20:35:59.648Z,8.30
2018-12-31T20:38:40.351Z,8.30
2018-12-31T20:41:21.463Z,8.30
2018-12-31T20:44:02.095Z,8.30
2018-12-31T20:46:42.504Z,8.30
2018-12-31T20:49:23.047Z,8.30
2018-12-31T20:52:03.540Z,8.30
2018-12-31T20:54:44.299Z,8.30
2018-12-31T20:57:24.987Z,8.30
2018-12-31T21:00:05.794Z,8.20
2018-12-31T21:02:46.355Z,8.20
2018-12-31T21:05:26.814Z,8.20
2018-12-31T21:08:07.400Z,8.20
2018-12-31T21:10:47.967Z,8.10
2018-12-31T21:13:28.647Z,8.10
2018-12-31T21:16:09.071Z,8.10
2018-12-31T21:18:49.283Z,8.10
2018-12-31T21:21:30.084Z,8.10
2018-12-31T21:24:10.491Z,8.10
2018-12-31T21:26:50.828Z,8.10
2018-12-31T21:29:31.439Z,8.10
2018-12-31T21:32:12.316Z,8.00
2018-12-31T21:34:52.786Z,8.00
2018-12-31T21:37:33.378Z,8.00
2018-12-31T21:40:13.918Z,8.00
2018-12-31T21:42:54.544Z,8.00
2018-12-31T21:45:35.179Z,8.00
2018-12-31T21:48:15.878Z,7.90
2018-12-31T21:50:56.183Z,8.00
2018-12-31T21:53:37.280Z,8.10
2018-12-31T21:56:17.615Z,8.10
2018-12-31T21:58:58.315Z,8.10
2018-12-31T22:01:39.195Z,8.10
2018-12-31T22:04:20.047Z,8.10
2018-12-31T22:07:00.768Z,8.10
2018-12-31T22:09:41.688Z,8.00
2018-12-31T22:12:22.371Z,7.90
2018-12-31T22:15:03.418Z,7.90
2018-12-31T22:17:44.019Z,7.90
2018-12-31T22:20:24.703Z,7.80
2018-12-31T22:23:05.042Z,7.90
2018-12-31T22:25:45.508Z,7.90
2018-12-31T22:28:26.597Z,7.80
2018-12-31T22:31:07.047Z,7.80
2018-12-31T22:33:47.247Z,7.80
2018-12-31T22:36:28.348Z,7.80
2018-12-31T22:39:08.924Z,7.80
2018-12-31T22:41:49.731Z,7.80
2018-12-31T22:44:30.141Z,7.80
2018-12-31T22:47:10.796Z,7.80
2018-12-31T22:49:51.359Z,7.70
2018-12-31T22:52:31.911Z,7.80
2018-12-31T22:55:12.659Z,7.80
2018-12-31T22:57:53.725Z,7.80
2018-12-31T23:00:36.694Z,7.80
2018-12-31T23:03:17.100Z,7.80
2018-12-31T23:05:57.700Z,7.90
2018-12-31T23:08:38.835Z,7.90
2018-12-31T23:11:19.338Z,7.90
2018-12-31T23:14:00.007Z,7.90
2018-12-31T23:16:40.779Z,7.90
2018-12-31T23:19:21.095Z,7.90
2018-12-31T23:22:01.995Z,7.90
2018-12-31T23:24:42.375Z,7.80
2018-12-31T23:27:23.466Z,7.80
2018-12-31T23:30:03.715Z,7.80
2018-12-31T23:32:44.420Z,7.70
2018-12-31T23:35:24.890Z,7.70
2018-12-31T23:38:05.555Z,7.70
2018-12-31T23:40:45.947Z,7.60
2018-12-31T23:43:27.397Z,7.60
2018-12-31T23:46:07.874Z,7.70
2018-12-31T23:48:48.404Z,7.70
2018-12-31T23:51:29.887Z,7.60
2018-12-31T23:54:10.359Z,7.60
2018-12-31T23:56:50.940Z,7.60
2018-12-31T23:59:32.052Z,7.70
